Time;durP1;ratioP1;P1;durP2;ratioP2;P2;SDS_P1;SDS_P2;PMS_P1;PMS_P2;Temp;Humidity;BMP_temperature;BMP_pressure;BME280_temperature;BME280_humidity;BME280_pressure;Samples;Min_cycle;Max_cycle;Signal;HPM_P1;HPM_P2
2022/10/02 00:00:13;;;;;;;3.72;1.40;;;;;;;12.92;100.00;100140.56;5589276;31;34536;-66
2022/10/02 00:03:25;;;;;;;2.42;1.30;;;;;;;12.80;100.00;100144.72;5589259;31;34805;-66
2022/10/02 00:06:46;;;;;;;2.35;1.35;;;;;;;12.79;100.00;100140.41;5589194;31;34504;-66
2022/10/02 00:09:58;;;;;;;2.10;1.27;;;;;;;12.78;100.00;100150.22;5574995;31;32975;-66
2022/10/02 00:13:12;;;;;;;1.50;1.10;;;;;;;12.71;100.00;100138.69;5589083;31;34417;-67
2022/10/02 00:16:40;;;;;;;2.05;1.30;;;;;;;12.63;100.00;100152.13;5589143;31;34230;-65
2022/10/02 00:19:55;;;;;;;2.42;1.30;;;;;;;12.52;100.00;100164.06;5589086;31;34932;-67
2022/10/02 00:23:36;;;;;;;2.10;1.58;;;;;;;12.54;100.00;100166.53;5589015;31;34596;-67
2022/10/02 00:27:02;;;;;;;3.50;1.50;;;;;;;12.48;100.00;100177.94;5588961;31;34374;-66
2022/10/02 00:30:14;;;;;;;2.97;1.85;;;;;;;12.47;100.00;100179.75;5589182;31;34827;-66
2022/10/02 00:33:45;;;;;;;5.00;1.90;;;;;;;12.42;100.00;100181.31;5588718;31;34944;-66
2022/10/02 00:37:22;;;;;;;3.40;1.90;;;;;;;12.34;100.00;100173.44;5588732;31;34252;-66
2022/10/02 00:40:58;;;;;;;3.62;1.90;;;;;;;12.20;100.00;100191.03;5595116;31;34339;-67
2022/10/02 00:44:18;;;;;;;4.18;2.10;;;;;;;12.02;100.00;100186.06;5595258;31;34267;-66
2022/10/02 00:47:45;;;;;;;2.95;1.70;;;;;;;11.91;100.00;100199.00;5595124;31;34905;-67
2022/10/02 00:51:07;;;;;;;2.60;1.98;;;;;;;11.96;100.00;100200.06;5580909;31;33614;-67
2022/10/02 00:54:26;;;;;;;2.90;1.77;;;;;;;12.01;100.00;100212.81;5581648;31;34336;-67
2022/10/02 00:58:01;;;;;;;3.60;1.62;;;;;;;11.84;100.00;100224.63;5595090;31;34195;-67
2022/10/02 01:01:21;;;;;;;2.50;2.00;;;;;;;11.66;100.00;100228.41;5594936;31;34971;-67
2022/10/02 01:04:35;;;;;;;2.97;1.67;;;;;;;11.53;100.00;100227.34;5595235;31;34239;-67
2022/10/02 01:07:48;;;;;;;1.70;1.48;;;;;;;11.52;100.00;100231.81;5594842;31;34841;-67
2022/10/02 01:10:55;;;;;;;2.47;1.55;;;;;;;11.49;100.00;100231.34;5594793;31;34150;-67
2022/10/02 01:14:04;;;;;;;2.30;1.50;;;;;;;11.39;100.00;100236.06;5594674;31;34192;-67
2022/10/02 01:17:26;;;;;;;2.60;1.67;;;;;;;11.53;100.00;100224.66;5594714;31;34259;-68
2022/10/02 01:20:49;;;;;;;2.80;1.62;;;;;;;11.54;100.00;100221.03;5594547;31;35540;-67
2022/10/02 01:24:07;;;;;;;3.97;1.50;;;;;;;11.42;100.00;100225.94;5594500;31;34727;-68
2022/10/02 01:27:15;;;;;;;3.35;1.50;;;;;;;11.36;100.00;100226.63;5580579;31;32862;-67
2022/10/02 01:30:22;;;;;;;1.92;1.50;;;;;;;11.37;100.00;100224.81;5594861;31;34847;-67
2022/10/02 01:33:30;;;;;;;3.00;1.50;;;;;;;11.51;100.00;100230.19;5594288;31;34194;-67
2022/10/02 01:36:38;;;;;;;2.90;1.45;;;;;;;11.47;100.00;100234.19;5594722;31;34786;-67
2022/10/02 01:39:46;;;;;;;4.37;1.73;;;;;;;11.42;100.00;100235.72;5594094;31;34272;-67
2022/10/02 01:43:13;;;;;;;3.05;1.37;;;;;;;11.66;100.00;100241.69;5594286;31;34517;-68
2022/10/02 01:46:32;;;;;;;3.05;1.60;;;;;;;11.59;100.00;100250.53;5594201;31;34247;-68
2022/10/02 01:49:52;;;;;;;5.53;1.70;;;;;;;11.47;100.00;100252.81;5592806;31;34339;-67
2022/10/02 01:53:19;;;;;;;1.95;1.40;;;;;;;11.36;100.00;100260.34;5590656;31;34206;-67
2022/10/02 01:56:41;;;;;;;3.60;1.40;;;;;;;11.33;100.00;100272.13;5590464;31;34216;-68
2022/10/02 02:00:15;;;;;;;5.37;1.50;;;;;;;11.17;100.00;100273.06;5576453;31;33280;-67
2022/10/02 02:03:36;;;;;;;2.90;1.50;;;;;;;11.03;100.00;100270.31;5590424;31;34221;-67
2022/10/02 02:07:04;;;;;;;3.10;1.60;;;;;;;10.90;100.00;100263.72;5590450;31;34348;-68
2022/10/02 02:10:18;;;;;;;;;;;;;;;10.84;100.00;100277.66;5590784;31;34861;-67
2022/10/02 02:13:34;;;;;;;2.20;1.58;;;;;;;10.73;100.00;100295.81;5590280;31;35132;-67
2022/10/02 02:16:44;;;;;;;3.17;1.62;;;;;;;10.60;100.00;100283.06;5590390;31;34220;-68
2022/10/02 02:20:06;;;;;;;3.47;1.70;;;;;;;10.56;100.00;100295.00;5590258;31;34820;-67
2022/10/02 02:23:25;;;;;;;5.00;1.75;;;;;;;10.49;100.00;100304.66;5590565;31;34626;-67
2022/10/02 02:26:35;;;;;;;2.17;1.70;;;;;;;10.46;100.00;100289.88;5590576;31;34537;-67
2022/10/02 02:29:45;;;;;;;5.13;1.80;;;;;;;10.44;100.00;100296.38;5590243;31;35502;-67
2022/10/02 02:33:02;;;;;;;5.03;1.90;;;;;;;10.46;100.00;100295.19;5590265;31;34317;-68
2022/10/02 02:36:12;;;;;;;3.53;1.60;;;;;;;10.40;100.00;100292.41;5590052;31;34318;-68
2022/10/02 02:39:28;;;;;;;3.10;1.55;;;;;;;10.30;100.00;100297.06;5590102;31;34234;-67
2022/10/02 02:42:41;;;;;;;2.33;1.70;;;;;;;10.43;100.00;100294.72;5589995;31;34900;-67
2022/10/02 02:46:00;;;;;;;4.70;1.83;;;;;;;10.43;100.00;100315.94;5576955;31;34162;-68
2022/10/02 02:49:10;;;;;;;;;;;;;;;10.34;100.00;100319.59;5590374;31;34275;-67
2022/10/02 02:52:26;;;;;;;4.50;1.92;;;;;;;10.29;100.00;100324.56;5590195;31;35018;-68
2022/10/02 02:55:42;;;;;;;2.60;1.90;;;;;;;10.30;100.00;100324.41;5589905;31;34298;-67
2022/10/02 02:59:00;;;;;;;2.37;1.85;;;;;;;10.28;100.00;100325.56;5589925;31;34872;-68
2022/10/02 03:02:08;;;;;;;3.67;1.90;;;;;;;10.38;100.00;100327.03;5589342;31;34254;-68
2022/10/02 03:05:19;;;;;;;4.95;2.03;;;;;;;10.34;100.00;100332.84;5589984;31;34713;-67
2022/10/02 03:08:30;;;;;;;3.03;2.00;;;;;;;10.35;100.00;100340.66;5589919;31;34328;-68
2022/10/02 03:11:56;;;;;;;4.93;1.90;;;;;;;10.32;100.00;100343.62;5589710;31;34352;-68
2022/10/02 03:15:33;;;;;;;3.62;1.90;;;;;;;10.26;100.00;100348.78;5589815;31;34073;-67
2022/10/02 03:19:02;;;;;;;2.67;1.70;;;;;;;10.25;100.00;100341.81;5589780;31;34109;-68
2022/10/02 03:22:35;;;;;;;2.80;1.60;;;;;;;10.33;100.00;100355.06;5589619;31;34948;-68
2022/10/02 03:25:51;;;;;;;2.40;1.85;;;;;;;10.40;100.00;100362.19;5589743;31;34149;-68
2022/10/02 03:29:01;;;;;;;2.58;1.87;;;;;;;10.44;100.00;100358.22;5589715;31;34511;-68
2022/10/02 03:32:13;;;;;;;5.75;1.92;;;;;;;10.50;100.00;100361.19;5576265;31;34862;-68
2022/10/02 03:35:22;;;;;;;4.35;1.70;;;;;;;10.44;100.00;100368.81;5589565;31;34919;-68
2022/10/02 03:38:35;;;;;;;3.10;1.80;;;;;;;10.64;100.00;100364.00;5589447;31;34184;-68
2022/10/02 03:41:42;;;;;;;5.43;1.77;;;;;;;10.75;100.00;100368.91;5589494;31;34809;-68
2022/10/02 03:44:49;;;;;;;3.03;1.77;;;;;;;10.90;100.00;100369.88;5589545;31;34878;-68
2022/10/02 03:47:56;;;;;;;1.45;1.10;;;;;;;11.11;100.00;100379.94;5589554;31;34169;-68
2022/10/02 03:51:04;;;;;;;2.07;1.20;;;;;;;11.47;100.00;100374.16;5589719;31;34722;-68
2022/10/02 03:54:15;;;;;;;1.58;1.10;;;;;;;11.50;100.00;100379.13;5589701;31;34938;-68
2022/10/02 03:57:25;;;;;;;3.60;0.98;;;;;;;11.47;100.00;100379.47;5589423;31;34144;-67
2022/10/02 04:00:37;;;;;;;1.73;1.05;;;;;;;11.37;100.00;100374.38;5589384;31;34338;-68
2022/10/02 04:04:08;;;;;;;1.75;0.80;;;;;;;11.88;100.00;100386.25;5589364;31;34199;-68
2022/10/02 04:07:24;;;;;;;4.72;1.20;;;;;;;11.93;100.00;100381.22;5589260;31;34947;-68
2022/10/02 04:10:44;;;;;;;3.12;1.00;;;;;;;11.74;100.00;100381.69;5589448;31;34413;-68
2022/10/02 04:14:06;;;;;;;5.72;1.15;;;;;;;11.62;100.00;100389.19;5588138;31;34240;-68
2022/10/02 04:17:42;;;;;;;2.42;0.90;;;;;;;11.84;100.00;100392.91;5589216;31;34137;-68
2022/10/02 04:20:58;;;;;;;1.70;1.00;;;;;;;11.76;100.00;100396.44;5589013;31;34220;-68
2022/10/02 04:24:31;;;;;;;3.92;1.10;;;;;;;11.79;100.00;100402.41;5589137;31;34239;-68
2022/10/02 04:27:53;;;;;;;2.28;1.10;;;;;;;11.64;100.00;100396.97;5588954;31;34842;-68
2022/10/02 04:31:01;;;;;;;1.83;1.23;;;;;;;11.51;100.00;100402.87;5588930;31;34944;-68
2022/10/02 04:34:12;;;;;;;3.27;1.20;;;;;;;11.38;100.00;100415.84;5588875;31;35494;-68
2022/10/02 04:37:55;;;;;;;5.18;1.20;;;;;;;11.27;100.00;100426.87;5588723;31;34647;-68
2022/10/02 04:41:42;;;;;;;1.62;1.05;;;;;;;11.31;100.00;100425.53;5588965;31;34840;-68
2022/10/02 04:45:12;;;;;;;3.97;1.30;;;;;;;11.31;100.00;100434.31;5588648;31;34323;-68
2022/10/02 04:48:40;;;;;;;2.20;1.30;;;;;;;11.19;100.00;100448.13;5588601;31;34554;-68
2022/10/02 04:52:22;;;;;;;3.10;1.48;;;;;;;11.21;100.00;100443.47;5588442;31;34946;-68
2022/10/02 04:55:29;;;;;;;;;;;;;;;11.22;100.00;100448.62;5574711;31;33526;-68
2022/10/02 04:58:55;;;;;;;2.95;1.23;;;;;;;11.34;100.00;100444.59;5588489;31;34945;-68
2022/10/02 05:02:06;;;;;;;2.25;1.20;;;;;;;11.24;100.00;100448.44;5588293;31;34145;-68
2022/10/02 05:05:31;;;;;;;1.48;1.10;;;;;;;11.20;100.00;100455.09;5588225;31;34879;-67
2022/10/02 05:08:56;;;;;;;2.30;1.20;;;;;;;11.31;100.00;100455.56;5574279;31;32648;-68
2022/10/02 05:12:33;;;;;;;1.65;1.25;;;;;;;11.51;100.00;100469.28;5588140;31;34846;-67
2022/10/02 05:15:57;;;;;;;1.95;1.15;;;;;;;11.55;100.00;100461.78;5588066;31;34500;-68
2022/10/02 05:19:28;;;;;;;2.50;1.33;;;;;;;11.54;100.00;100479.56;5588016;31;34287;-67
2022/10/02 05:23:13;;;;;;;3.37;1.10;;;;;;;11.60;100.00;100472.75;5587929;31;34883;-67
2022/10/02 05:26:42;;;;;;;2.28;1.23;;;;;;;11.62;100.00;100470.72;5590667;31;33800;-68
2022/10/02 05:29:57;;;;;;;2.75;1.10;;;;;;;11.67;100.00;100481.66;5590546;31;34567;-67
2022/10/02 05:33:31;;;;;;;5.25;1.20;;;;;;;11.68;100.00;100483.31;5590711;31;34182;-68
2022/10/02 05:36:51;;;;;;;2.92;1.30;;;;;;;11.72;100.00;100474.87;5590627;31;34445;-68
2022/10/02 05:40:25;;;;;;;3.15;1.10;;;;;;;11.80;100.00;100468.69;5590401;31;34185;-68
2022/10/02 05:43:39;;;;;;;2.55;1.08;;;;;;;11.90;100.00;100468.50;5590626;31;34936;-68
2022/10/02 05:46:54;;;;;;;2.15;1.08;;;;;;;11.85;100.00;100476.16;5576387;31;33256;-66
2022/10/02 05:50:16;;;;;;;2.25;0.90;;;;;;;11.90;100.00;100476.47;5590162;31;34183;-67
2022/10/02 05:53:49;;;;;;;3.70;1.17;;;;;;;11.97;100.00;100483.56;5590427;31;34579;-67
2022/10/02 05:57:26;;;;;;;3.70;1.17;;;;;;;12.04;100.00;100484.53;5590588;31;34146;-68
2022/10/02 06:01:16;;;;;;;2.22;1.23;;;;;;;12.05;100.00;100485.34;5590444;31;34370;-68
2022/10/02 06:04:38;;;;;;;3.95;0.95;;;;;;;12.22;100.00;100497.53;5555882;31;34303;-68
2022/10/02 06:07:49;;;;;;;1.70;1.10;;;;;;;12.26;100.00;100500.69;5590168;31;34259;-67
2022/10/02 06:11:06;;;;;;;2.55;1.02;;;;;;;12.35;100.00;100512.91;5590271;31;34936;-68
2022/10/02 06:14:40;;;;;;;1.60;0.93;;;;;;;12.49;100.00;100520.97;5590208;31;34611;-68
2022/10/02 06:17:57;;;;;;;;;;;;;;;12.69;100.00;100520.50;5590487;31;34686;-67
2022/10/02 06:21:27;;;;;;;5.03;1.33;;;;;;;12.80;100.00;100523.59;5577104;31;34568;-66
2022/10/02 06:24:51;;;;;;;2.65;1.08;;;;;;;12.86;100.00;100522.03;5590308;31;34836;-68
2022/10/02 06:28:01;;;;;;;2.53;0.85;;;;;;;12.96;100.00;100519.97;5590246;31;33300;-67
2022/10/02 06:31:20;;;;;;;1.67;0.90;;;;;;;13.03;100.00;100526.22;5590122;31;34244;-67
2022/10/02 06:34:30;;;;;;;3.70;0.97;;;;;;;13.04;100.00;100522.56;5590056;31;34775;-67
2022/10/02 06:38:00;;;;;;;3.78;1.00;;;;;;;13.07;100.00;100525.66;5588969;31;34362;-68
2022/10/02 06:41:21;;;;;;;2.08;0.90;;;;;;;13.06;100.00;100532.03;5568731;32;33554;-68
2022/10/02 06:45:03;;;;;;;2.87;0.90;;;;;;;13.07;100.00;100528.34;5570419;32;34808;-67
2022/10/02 06:48:13;;;;;;;2.33;1.05;;;;;;;13.14;100.00;100538.31;5569463;32;34634;-68
2022/10/02 06:51:38;;;;;;;3.85;1.10;;;;;;;13.18;100.00;100548.41;5570194;32;34835;-69
2022/10/02 06:55:08;;;;;;;2.25;1.05;;;;;;;13.31;99.48;100555.81;5569421;32;33537;-66
2022/10/02 06:58:23;;;;;;;5.57;1.30;;;;;;;13.40;98.41;100568.06;5570045;32;34825;-68
2022/10/02 07:02:07;;;;;;;3.17;0.93;;;;;;;13.36;99.19;100574.75;5556831;32;32670;-67
2022/10/02 07:05:32;;;;;;;2.90;1.00;;;;;;;13.45;98.48;100579.81;5558094;31;34828;-69
2022/10/02 07:09:08;;;;;;;2.28;0.90;;;;;;;13.45;96.50;100579.81;5570091;32;34920;-69
2022/10/02 07:12:27;;;;;;;2.30;1.00;;;;;;;13.53;97.20;100583.41;5569738;32;34151;-69
2022/10/02 07:15:59;;;;;;;2.67;0.90;;;;;;;13.53;95.43;100594.91;5568878;32;33593;-67
2022/10/02 07:19:28;;;;;;;3.30;1.10;;;;;;;13.72;97.26;100599.69;5570197;32;34888;-67
2022/10/02 07:23:12;;;;;;;3.58;1.02;;;;;;;13.75;92.79;100595.81;5570065;32;34690;-67
2022/10/02 07:26:29;;;;;;;3.17;0.90;;;;;;;14.03;92.53;100607.53;5564269;32;34163;-67
2022/10/02 07:30:10;;;;;;;3.70;1.10;;;;;;;14.63;88.27;100591.25;5569852;32;34166;-67
2022/10/02 07:33:25;;;;;;;2.78;1.10;;;;;;;14.73;86.98;100604.31;5549562;32;33535;-68
2022/10/02 07:36:59;;;;;;;6.12;1.10;;;;;;;15.50;81.85;100612.41;5569134;32;34212;-66
2022/10/02 07:40:21;;;;;;;5.35;1.15;;;;;;;16.77;75.38;100619.13;5573389;31;34856;-66
2022/10/02 07:44:05;;;;;;;4.62;0.90;;;;;;;17.64;71.11;100619.84;5575865;31;34151;-68
2022/10/02 07:47:30;;;;;;;1.62;0.80;;;;;;;17.46;70.72;100625.00;5575895;31;34852;-68
2022/10/02 07:50:56;;;;;;;3.17;1.05;;;;;;;17.41;70.62;100629.31;5589055;31;34587;-67
2022/10/02 07:54:40;;;;;;;4.50;1.10;;;;;;;17.89;67.57;100632.63;5589161;31;34365;-68
2022/10/02 07:58:06;;;;;;;3.85;1.08;;;;;;;18.23;65.83;100626.97;5589201;31;34847;-67
2022/10/02 08:01:19;;;;;;;2.97;0.98;;;;;;;17.83;67.19;100620.03;5589261;31;34890;-67
2022/10/02 08:04:29;;;;;;;2.58;1.10;;;;;;;19.90;59.98;100619.25;5589043;31;34917;-67
2022/10/02 08:07:41;;;;;;;2.00;0.98;;;;;;;19.46;61.05;100628.41;5574843;31;32669;-67
2022/10/02 08:10:55;;;;;;;3.60;1.00;;;;;;;18.35;63.26;100640.56;5588788;31;34605;-66
2022/10/02 08:14:02;;;;;;;3.53;1.00;;;;;;;19.64;59.36;100635.69;5574753;31;35272;-67
2022/10/02 08:17:30;;;;;;;4.32;1.02;;;;;;;18.97;60.84;100646.09;5588669;31;34834;-68
2022/10/02 08:20:42;;;;;;;3.10;1.00;;;;;;;19.17;61.00;100642.44;5575461;31;34765;-67
2022/10/02 08:24:00;;;;;;;4.75;1.60;;;;;;;20.33;57.32;100635.44;5588660;31;34942;-67
2022/10/02 08:27:12;;;;;;;4.12;1.00;;;;;;;21.47;52.40;100647.94;5588644;31;34208;-67
2022/10/02 08:30:19;;;;;;;5.00;0.80;;;;;;;21.30;52.79;100645.09;5588677;31;34251;-68
2022/10/02 08:33:30;;;;;;;4.35;0.80;;;;;;;23.48;46.99;100644.34;5588351;31;34971;-68
2022/10/02 08:36:50;;;;;;;2.80;0.70;;;;;;;20.69;53.38;100642.62;5575513;31;34566;-69
2022/10/02 08:40:15;;;;;;;5.57;1.50;;;;;;;19.58;57.16;100644.63;5574388;31;33438;-68
2022/10/02 08:43:37;;;;;;;3.17;1.20;;;;;;;17.33;65.61;100644.56;5574544;31;33605;-68
2022/10/02 08:47:05;;;;;;;5.62;1.10;;;;;;;16.38;69.31;100651.91;5588613;31;34651;-67
2022/10/02 08:50:34;;;;;;;3.78;1.08;;;;;;;16.06;71.71;100654.22;5588202;31;34934;-68
2022/10/02 08:54:01;;;;;;;2.58;0.85;;;;;;;15.89;71.68;100649.34;5587942;31;34423;-67
2022/10/02 08:57:31;;;;;;;3.65;0.90;;;;;;;15.77;72.32;100657.09;5574281;31;34295;-66
2022/10/02 09:00:54;;;;;;;5.10;1.00;;;;;;;15.56;71.18;100660.63;5589900;31;34317;-67
2022/10/02 09:04:19;;;;;;;5.82;1.10;;;;;;;15.58;70.22;100658.63;5590550;31;34280;-68
2022/10/02 09:07:47;;;;;;;4.68;1.10;;;;;;;15.53;71.88;100650.34;5590504;31;34375;-67
2022/10/02 09:11:12;;;;;;;3.67;1.20;;;;;;;15.56;72.35;100660.63;5576882;31;33500;-67
2022/10/02 09:14:35;;;;;;;4.22;1.20;;;;;;;15.46;71.82;100648.59;5576661;31;34598;-67
2022/10/02 09:18:14;;;;;;;6.32;1.00;;;;;;;15.45;73.37;100644.25;5590411;31;34210;-66
2022/10/02 09:21:53;;;;;;;5.60;1.10;;;;;;;15.52;73.60;100647.84;5590356;31;34868;-68
2022/10/02 09:25:07;;;;;;;5.60;1.20;;;;;;;15.52;71.70;100646.00;5590208;31;34929;-68
2022/10/02 09:28:35;;;;;;;6.28;1.17;;;;;;;15.63;72.52;100652.69;5590345;31;34261;-67
2022/10/02 09:32:16;;;;;;;6.00;1.15;;;;;;;15.68;71.33;100663.63;5576469;31;34297;-67
2022/10/02 09:35:49;;;;;;;5.32;1.10;;;;;;;15.50;72.65;100653.34;5590302;31;34237;-67
2022/10/02 09:39:13;;;;;;;3.28;1.15;;;;;;;15.63;72.97;100650.00;5590306;31;34548;-68
2022/10/02 09:42:57;;;;;;;4.00;1.00;;;;;;;16.05;70.04;100643.69;5576250;31;32722;-66
2022/10/02 09:46:43;;;;;;;6.68;1.12;;;;;;;16.51;67.62;100642.06;5590217;31;34867;-67
2022/10/02 09:50:05;;;;;;;4.70;1.30;;;;;;;16.29;68.15;100637.03;5590110;31;34885;-67
2022/10/02 09:53:40;;;;;;;5.82;1.05;;;;;;;16.59;64.38;100629.56;5590014;31;34254;-68
2022/10/02 09:57:10;;;;;;;4.20;1.05;;;;;;;16.47;66.42;100632.78;5590259;31;34141;-70
2022/10/02 10:00:25;;;;;;;4.93;1.30;;;;;;;16.59;64.22;100637.63;5590084;31;34901;-67
2022/10/02 10:03:47;;;;;;;4.55;1.12;;;;;;;16.53;63.58;100636.53;5589913;31;34860;-67
2022/10/02 10:07:02;;;;;;;6.90;1.25;;;;;;;16.73;63.71;100642.00;5590291;31;34447;-68
2022/10/02 10:10:17;;;;;;;4.10;1.27;;;;;;;16.41;65.16;100644.28;5589475;31;34934;-67
2022/10/02 10:14:00;;;;;;;5.00;0.90;;;;;;;16.44;66.17;100632.38;5576707;31;34194;-67
2022/10/02 10:17:13;;;;;;;3.95;1.00;;;;;;;16.50;65.07;100627.06;5576071;31;32842;-66
2022/10/02 10:20:36;;;;;;;5.82;1.20;;;;;;;16.55;61.88;100628.31;5589950;31;34981;-66
2022/10/02 10:24:15;;;;;;;3.42;0.90;;;;;;;16.69;61.91;100633.53;5589879;31;35554;-65
2022/10/02 10:27:48;;;;;;;4.68;1.00;;;;;;;16.65;61.17;100624.25;5575899;31;32988;-68
2022/10/02 10:31:31;;;;;;;4.05;1.08;;;;;;;17.10;61.61;100625.38;5575691;31;32635;-67
2022/10/02 10:35:33;;;;;;;4.28;1.10;;;;;;;16.76;59.55;100614.78;5589794;31;34580;-66
2022/10/02 10:38:51;;;;;;;4.68;0.90;;;;;;;16.80;60.74;100613.34;5502325;31;33735;-67
2022/10/02 10:41:59;;;;;;;3.22;1.00;;;;;;;17.23;61.44;100605.81;5589737;31;35160;-68
2022/10/02 10:45:50;;;;;;;4.82;1.23;;;;;;;17.03;59.27;100608.47;5589658;31;34586;-66
2022/10/02 10:49:08;;;;;;;3.85;0.80;;;;;;;17.12;59.01;100609.09;5564948;31;32612;-68
2022/10/02 10:52:50;;;;;;;5.80;1.20;;;;;;;17.16;57.92;100602.28;5575519;31;33051;-67
2022/10/02 10:56:18;;;;;;;3.60;1.10;;;;;;;17.84;58.11;100617.13;5582852;31;34040;-69
2022/10/02 10:59:41;;;;;;;3.83;1.02;;;;;;;17.72;58.42;100600.84;5589401;31;34676;-67
2022/10/02 11:03:13;;;;;;;4.43;1.10;;;;;;;18.47;56.87;100607.44;5589661;31;34906;-67
2022/10/02 11:06:49;;;;;;;3.40;1.27;;;;;;;19.81;53.04;100607.13;5589089;31;34702;-68
2022/10/02 11:10:28;;;;;;;5.68;1.10;;;;;;;20.57;50.14;100602.16;5589768;31;34203;-67
2022/10/02 11:14:13;;;;;;;5.00;1.23;;;;;;;20.82;49.22;100604.69;5589277;31;34925;-68
2022/10/02 11:17:59;;;;;;;5.32;1.10;;;;;;;19.30;53.99;100608.19;5587635;31;34119;-68
2022/10/02 11:21:40;;;;;;;2.15;0.98;;;;;;;18.48;55.77;100619.84;5590233;31;34178;-68
2022/10/02 11:25:18;;;;;;;4.80;0.85;;;;;;;19.26;54.80;100619.63;5589557;31;34273;-69
2022/10/02 11:28:33;;;;;;;4.47;1.10;;;;;;;18.64;55.91;100624.75;5563195;31;33464;-69
2022/10/02 11:31:45;;;;;;;6.18;1.10;;;;;;;19.72;52.97;100603.91;5575681;31;32783;-68
2022/10/02 11:35:12;;;;;;;2.22;0.90;;;;;;;21.38;47.54;100600.78;5575493;31;32732;-70
2022/10/02 11:38:54;;;;;;;6.78;0.90;;;;;;;22.57;44.34;100596.63;5589474;31;34256;-68
2022/10/02 11:42:19;;;;;;;4.65;1.10;;;;;;;24.27;42.23;100598.91;5589294;31;34538;-69
2022/10/02 11:45:37;;;;;;;3.50;1.10;;;;;;;26.79;36.50;100595.38;5575201;31;33070;-72
2022/10/02 11:49:07;;;;;;;6.28;0.80;;;;;;;28.34;32.17;100597.44;5575281;31;32734;-69
2022/10/02 11:52:45;;;;;;;4.07;0.80;;;;;;;24.65;39.69;100594.19;5575088;31;32769;-69
2022/10/02 11:56:14;;;;;;;3.58;0.85;;;;;;;24.46;37.88;100590.19;5575362;31;33818;-67
2022/10/02 11:59:43;;;;;;;2.45;0.73;;;;;;;26.36;34.38;100574.03;5575251;31;33085;-69
2022/10/02 12:02:55;;;;;;;3.90;1.00;;;;;;;25.98;35.99;100566.25;5580267;31;34479;-69
2022/10/02 12:06:27;;;;;;;2.97;0.82;;;;;;;27.03;34.32;100567.66;5589251;31;34902;-68
2022/10/02 12:09:41;;;;;;;3.78;0.90;;;;;;;27.61;32.83;100569.00;5547324;31;33358;-71
2022/10/02 12:13:05;;;;;;;3.42;1.12;;;;;;;29.01;30.50;100582.31;5588813;31;34099;-68
2022/10/02 12:16:23;;;;;;;3.03;0.98;;;;;;;29.36;31.21;100579.34;5589260;31;34149;-70
2022/10/02 12:27:58;;;;;;;3.25;1.00;;;;;;;26.21;35.01;100560.34;5574718;31;33054;-68
2022/10/02 12:31:33;;;;;;;6.60;1.27;;;;;;;26.05;36.58;100556.75;5588700;31;34176;-69
2022/10/02 12:34:41;;;;;;;3.03;0.62;;;;;;;25.52;38.46;100547.75;5587655;31;34236;-69
2022/10/02 12:38:15;;;;;;;4.55;0.93;;;;;;;24.68;39.89;100542.16;5579832;31;275771;-68
2022/10/02 12:41:32;;;;;;;3.62;1.00;;;;;;;22.07;46.97;100535.13;5588441;31;34214;-69
2022/10/02 12:44:58;;;;;;;2.22;0.60;;;;;;;19.90;54.56;100535.78;5588741;31;34877;-69
2022/10/02 12:48:22;;;;;;;3.75;0.95;;;;;;;20.06;55.04;100529.81;5588305;31;34599;-68
2022/10/02 12:51:58;;;;;;;2.95;0.93;;;;;;;20.24;54.32;100523.56;5588320;31;35560;-67
2022/10/02 12:55:11;;;;;;;3.55;1.02;;;;;;;20.04;56.84;100531.09;5561831;31;32787;-67
2022/10/02 12:58:33;;;;;;;3.72;1.00;;;;;;;19.41;57.70;100520.56;5588181;31;34638;-68
2022/10/02 13:02:06;;;;;;;4.43;1.05;;;;;;;18.48;61.89;100523.12;5587865;31;34357;-70
2022/10/02 13:05:34;;;;;;;6.03;0.80;;;;;;;17.91;64.01;100517.81;5588108;31;34641;-69
2022/10/02 13:08:48;;;;;;;3.80;0.90;;;;;;;17.94;63.75;100526.28;5574276;31;34372;-67
2022/10/02 13:12:20;;;;;;;4.10;1.00;;;;;;;17.85;65.55;100513.31;5587799;31;34868;-68
2022/10/02 13:15:36;;;;;;;3.35;0.88;;;;;;;18.28;63.67;100506.28;5587996;31;34257;-67
2022/10/02 13:19:00;;;;;;;3.47;1.20;;;;;;;18.70;63.21;100498.63;5587881;31;34898;-67
2022/10/02 13:22:15;;;;;;;2.65;0.98;;;;;;;19.09;62.37;100495.63;5574086;31;34276;-67
2022/10/02 13:26:01;;;;;;;3.03;1.00;;;;;;;18.63;63.51;100496.81;5588125;31;34773;-69
2022/10/02 13:29:41;;;;;;;3.60;0.90;;;;;;;18.49;65.22;100497.09;5561187;31;33318;-68
2022/10/02 13:32:59;;;;;;;2.87;1.00;;;;;;;18.43;62.82;100490.72;5587129;31;34838;-67
2022/10/02 13:36:33;;;;;;;4.70;1.08;;;;;;;18.31;65.82;100489.75;5573441;31;32631;-68
2022/10/02 13:40:19;;;;;;;3.85;1.05;;;;;;;17.38;67.80;100491.09;5573419;31;32912;-67
2022/10/02 13:43:52;;;;;;;2.72;1.05;;;;;;;17.39;71.18;100477.47;5566777;31;34398;-67
2022/10/02 13:47:38;;;;;;;4.25;1.00;;;;;;;17.30;70.17;100480.59;5589805;31;34230;-68
2022/10/02 13:51:06;;;;;;;4.47;1.05;;;;;;;16.78;72.38;100484.13;5590381;31;34870;-66
2022/10/02 13:54:32;;;;;;;13.20;1.37;;;;;;;16.99;72.55;100475.91;5590122;31;34945;-68
2022/10/02 13:57:49;;;;;;;4.70;1.35;;;;;;;16.76;74.07;100481.66;5590180;31;34304;-66
2022/10/02 14:01:03;;;;;;;3.60;1.17;;;;;;;16.81;74.44;100467.63;5590145;31;34234;-67
2022/10/02 14:04:26;;;;;;;3.00;0.98;;;;;;;16.83;74.75;100468.25;5590189;31;34937;-67
2022/10/02 14:07:38;;;;;;;;;;;;;;;17.04;73.91;100464.56;5590393;31;34182;-67
2022/10/02 14:11:33;;;;;;;4.47;1.30;;;;;;;17.05;73.20;100450.94;5589937;31;34584;-66
2022/10/02 14:14:55;;;;;;;3.97;0.90;;;;;;;17.44;71.29;100455.38;5545653;31;33218;-68
2022/10/02 14:18:12;;;;;;;3.90;0.90;;;;;;;17.29;71.84;100462.84;5576356;31;33721;-67
2022/10/02 14:21:39;;;;;;;3.80;1.05;;;;;;;17.00;74.50;100457.94;5590148;31;34159;-69
2022/10/02 14:25:23;;;;;;;3.12;0.82;;;;;;;16.88;71.42;100450.53;5589950;31;34233;-66
2022/10/02 14:28:40;;;;;;;2.55;0.80;;;;;;;16.65;72.87;100452.81;5588826;31;34322;-69
2022/10/02 14:32:30;;;;;;;3.08;1.02;;;;;;;16.50;74.89;100461.00;5576870;31;34219;-66
2022/10/02 14:36:01;;;;;;;3.15;0.88;;;;;;;16.37;75.95;100447.59;5562815;31;33032;-67
2022/10/02 14:39:30;;;;;;;3.83;1.12;;;;;;;16.55;75.80;100446.19;5589664;31;34154;-69
2022/10/02 14:43:06;;;;;;;3.72;0.85;;;;;;;16.47;75.21;100444.50;5575979;31;34175;-65
2022/10/02 14:46:42;;;;;;;3.83;0.82;;;;;;;16.72;74.44;100440.22;5589231;31;34239;-66
2022/10/02 14:50:06;;;;;;;3.22;0.90;;;;;;;16.84;74.48;100435.91;5589015;31;34229;-67
2022/10/02 14:53:16;;;;;;;2.35;0.85;;;;;;;16.63;73.74;100427.25;5575144;31;33897;-67
2022/10/02 14:56:54;;;;;;;2.47;0.98;;;;;;;16.77;75.77;100427.03;5589131;31;34387;-65
2022/10/02 15:00:23;;;;;;;2.42;0.85;;;;;;;16.51;74.51;100417.09;5589478;31;34290;-67
2022/10/02 15:03:53;;;;;;;2.37;0.88;;;;;;;16.31;75.30;100402.91;5589627;31;34475;-66
2022/10/02 15:07:09;;;;;;;2.50;0.90;;;;;;;16.26;76.52;100389.31;5581435;31;34341;-67
2022/10/02 15:10:34;;;;;;;2.53;0.70;;;;;;;16.33;76.80;100389.28;5589347;31;34170;-67
2022/10/02 15:13:51;;;;;;;4.60;1.00;;;;;;;16.25;77.54;100389.50;5575687;31;35524;-67
2022/10/02 15:21:00;;;;;;;3.53;0.93;;;;;;;15.93;80.49;100397.25;5575425;31;33795;-66
2022/10/02 15:24:45;;;;;;;4.18;1.25;;;;;;;16.01;82.09;100396.25;5589366;31;34320;-67
2022/10/02 15:28:15;;;;;;;4.93;1.37;;;;;;;15.83;82.22;100396.00;5571996;31;34245;-66
2022/10/02 15:31:57;;;;;;;3.20;1.12;;;;;;;15.83;82.91;100385.31;5589199;31;34876;-66
2022/10/02 15:35:31;;;;;;;5.40;1.17;;;;;;;15.78;83.64;100385.09;5589247;31;34873;-66
2022/10/02 15:39:21;;;;;;;4.05;1.50;;;;;;;15.60;84.87;100391.81;5588920;31;34898;-66
2022/10/02 15:42:55;;;;;;;3.87;1.10;;;;;;;15.69;85.62;100384.41;5555287;31;34037;-66
2022/10/02 15:46:36;;;;;;;1.60;0.90;;;;;;;15.57;86.60;100381.50;5556168;31;34245;-68
2022/10/02 15:49:55;;;;;;;2.85;1.00;;;;;;;15.30;89.39;100378.91;5574980;31;32747;-69
2022/10/02 15:53:24;;;;;;;2.28;0.80;;;;;;;15.16;89.90;100375.31;5588988;31;34264;-67
2022/10/02 15:57:15;;;;;;;4.68;1.30;;;;;;;15.17;91.23;100375.13;5575083;31;33864;-68